createdAt,value
2019-01-13T00:01:22.998Z,1.97
2019-01-13T00:03:52.458Z,1.83
2019-01-13T00:06:21.732Z,1.77
2019-01-13T00:08:51.008Z,1.70
2019-01-13T00:11:20.352Z,1.67
2019-01-13T00:13:49.618Z,1.73
2019-01-13T00:16:18.938Z,1.77
2019-01-13T00:18:48.220Z,1.90
2019-01-13T00:21:17.506Z,1.53
2019-01-13T00:23:47.024Z,1.90
2019-01-13T00:26:16.320Z,2.20
2019-01-13T00:28:45.590Z,2.33
2019-01-13T00:31:15.977Z,2.70
2019-01-13T00:33:45.260Z,2.10
2019-01-13T00:36:14.557Z,2.23
2019-01-13T00:38:43.881Z,2.43
2019-01-13T00:41:13.138Z,2.03
2019-01-13T00:43:42.480Z,1.60
2019-01-13T00:46:11.810Z,2.80
2019-01-13T00:48:40.994Z,2.53
2019-01-13T00:51:10.363Z,1.90
2019-01-13T00:53:39.703Z,2.83
2019-01-13T00:56:08.974Z,2.60
2019-01-13T00:58:38.350Z,2.60
2019-01-13T01:01:07.821Z,3.17
2019-01-13T01:03:37.063Z,3.37
2019-01-13T01:06:06.886Z,3.40
2019-01-13T01:08:36.160Z,3.10
2019-01-13T01:11:05.489Z,3.07
2019-01-13T01:13:34.830Z,2.77
2019-01-13T01:16:04.193Z,3.53
2019-01-13T01:18:33.550Z,2.67
2019-01-13T01:21:02.819Z,3.07
2019-01-13T01:23:32.227Z,2.93
2019-01-13T01:26:01.508Z,2.73
2019-01-13T01:28:30.924Z,3.10
2019-01-13T01:31:00.206Z,2.23
2019-01-13T01:33:29.505Z,3.00
2019-01-13T01:35:58.781Z,2.30
2019-01-13T01:38:28.102Z,2.80
2019-01-13T01:40:57.367Z,2.00
2019-01-13T01:43:26.763Z,2.27
2019-01-13T01:45:56.118Z,2.33
2019-01-13T01:48:25.522Z,2.80
2019-01-13T01:50:54.779Z,2.57
2019-01-13T01:53:24.057Z,2.73
2019-01-13T01:55:53.306Z,2.63
2019-01-13T01:58:22.589Z,2.23
2019-01-13T02:00:51.776Z,2.23
2019-01-13T02:03:21.038Z,2.27
2019-01-13T02:05:50.479Z,2.43
2019-01-13T02:08:19.818Z,1.97
2019-01-13T02:10:49.037Z,1.73
2019-01-13T02:13:18.325Z,1.90
2019-01-13T02:15:47.567Z,1.60
2019-01-13T02:18:16.842Z,1.50
2019-01-13T02:20:46.106Z,1.53
2019-01-13T02:23:15.443Z,1.40
2019-01-13T02:25:44.729Z,1.70
2019-01-13T02:28:14.015Z,2.00
2019-01-13T02:30:48.994Z,1.20
2019-01-13T02:33:14.498Z,2.07
2019-01-13T02:35:43.968Z,2.23
2019-01-13T02:38:13.239Z,1.43
2019-01-13T02:40:42.488Z,1.30
2019-01-13T02:43:11.775Z,1.50
2019-01-13T02:45:41.072Z,1.70
2019-01-13T02:48:10.351Z,1.40
2019-01-13T02:50:39.598Z,1.13
2019-01-13T02:53:08.816Z,1.57
2019-01-13T02:55:38.192Z,1.30
2019-01-13T02:58:07.473Z,1.40
2019-01-13T03:00:36.895Z,1.53
2019-01-13T03:03:06.288Z,1.53
2019-01-13T03:05:35.599Z,1.80
2019-01-13T03:08:05.179Z,1.60
2019-01-13T03:10:34.449Z,2.47
2019-01-13T03:13:04.100Z,2.20
2019-01-13T03:15:33.469Z,3.47
2019-01-13T03:18:04.616Z,2.20
2019-01-13T03:20:33.885Z,1.77
2019-01-13T03:23:03.155Z,1.97
2019-01-13T03:25:32.507Z,2.07
2019-01-13T03:28:01.867Z,2.27
2019-01-13T03:30:31.162Z,2.07
2019-01-13T03:33:00.430Z,2.87
2019-01-13T03:35:29.705Z,2.53
2019-01-13T03:37:59.082Z,2.53
2019-01-13T03:40:28.370Z,2.40
2019-01-13T03:42:57.734Z,2.20
2019-01-13T03:45:27.042Z,2.50
2019-01-13T03:47:56.413Z,3.33
2019-01-13T03:50:25.768Z,2.17
2019-01-13T03:52:55.041Z,2.33
2019-01-13T03:55:25.137Z,2.97
2019-01-13T03:57:54.439Z,3.13
2019-01-13T04:00:25.564Z,2.37
2019-01-13T04:02:55.148Z,3.43
2019-01-13T04:05:24.555Z,2.20
2019-01-13T04:07:55.471Z,2.03
2019-01-13T04:10:24.777Z,2.30
2019-01-13T04:12:54.137Z,2.80
2019-01-13T04:15:47.132Z,2.63
2019-01-13T04:18:16.496Z,2.30
2019-01-13T04:20:45.788Z,2.30
2019-01-13T04:23:15.021Z,2.33
2019-01-13T04:25:44.387Z,2.30
2019-01-13T04:28:13.731Z,2.33
2019-01-13T04:30:43.011Z,2.47
2019-01-13T04:33:12.295Z,2.37
2019-01-13T04:35:41.565Z,1.70
2019-01-13T04:38:12.403Z,1.50
2019-01-13T04:40:41.794Z,2.13
2019-01-13T04:43:11.130Z,2.27
2019-01-13T04:45:40.456Z,2.10
2019-01-13T04:48:09.728Z,1.90
2019-01-13T04:50:39.010Z,1.90
2019-01-13T04:53:08.348Z,1.67
2019-01-13T04:55:37.664Z,2.30
2019-01-13T04:58:07.098Z,2.00
2019-01-13T05:00:36.482Z,2.10
2019-01-13T05:03:05.745Z,2.53
2019-01-13T05:05:35.153Z,2.77
2019-01-13T05:08:04.338Z,1.83
2019-01-13T05:10:33.538Z,1.53
2019-01-13T05:13:02.916Z,1.93
2019-01-13T05:15:32.469Z,1.83
2019-01-13T05:18:01.783Z,2.50
2019-01-13T05:20:31.093Z,2.30
2019-01-13T05:23:00.388Z,2.07
2019-01-13T05:25:29.731Z,2.17
2019-01-13T05:27:58.970Z,1.83
2019-01-13T05:30:28.254Z,2.27
2019-01-13T05:32:57.522Z,2.57
2019-01-13T05:35:26.782Z,3.73
2019-01-13T05:37:56.033Z,2.37
2019-01-13T05:40:25.305Z,2.50
2019-01-13T05:42:54.569Z,2.10
2019-01-13T05:45:24.003Z,2.67
2019-01-13T05:47:53.265Z,2.90
2019-01-13T05:50:22.547Z,2.93
2019-01-13T05:52:53.048Z,2.53
2019-01-13T05:55:22.646Z,2.70
2019-01-13T05:57:52.019Z,3.00
2019-01-13T06:00:23.920Z,2.60
2019-01-13T06:02:53.099Z,3.27
2019-01-13T06:05:22.525Z,3.00
2019-01-13T06:07:51.825Z,3.00
2019-01-13T06:10:21.389Z,2.10
2019-01-13T06:12:50.747Z,2.73
2019-01-13T06:15:22.053Z,2.50
2019-01-13T06:17:51.302Z,2.90
2019-01-13T06:20:22.538Z,3.43
2019-01-13T06:22:51.924Z,3.10
2019-01-13T06:25:21.289Z,2.40
2019-01-13T06:27:50.532Z,2.60
2019-01-13T06:30:21.806Z,2.70
2019-01-13T06:32:51.145Z,2.07
2019-01-13T06:35:20.463Z,2.47
2019-01-13T06:37:50.013Z,2.40
2019-01-13T06:40:21.235Z,2.73
2019-01-13T06:42:50.480Z,2.40
2019-01-13T06:45:24.534Z,2.73
2019-01-13T06:47:53.826Z,2.20
2019-01-13T06:50:23.142Z,2.77
2019-01-13T06:52:52.458Z,2.60
2019-01-13T06:55:21.720Z,2.90
2019-01-13T06:57:51.002Z,3.53
2019-01-13T07:00:25.099Z,3.87
2019-01-13T07:02:54.394Z,3.13
2019-01-13T07:05:23.716Z,3.00
2019-01-13T07:07:53.064Z,3.93
2019-01-13T07:10:22.328Z,4.27
2019-01-13T07:12:51.603Z,4.30
2019-01-13T07:15:21.258Z,4.10
2019-01-13T07:17:50.678Z,5.10
2019-01-13T07:20:21.239Z,4.27
2019-01-13T07:22:50.524Z,4.57
2019-01-13T07:25:19.783Z,5.07
2019-01-13T07:27:49.076Z,4.50
2019-01-13T07:30:23.324Z,4.50
2019-01-13T07:32:52.784Z,4.37
2019-01-13T07:35:22.049Z,5.60
2019-01-13T07:37:51.391Z,4.00
2019-01-13T07:40:21.952Z,5.03
2019-01-13T07:42:51.735Z,4.30
2019-01-13T07:45:23.515Z,4.90
2019-01-13T07:47:52.816Z,5.30
2019-01-13T07:50:22.104Z,4.67
2019-01-13T07:52:51.467Z,5.23
2019-01-13T07:55:22.127Z,5.13
2019-01-13T07:57:51.494Z,5.90
2019-01-13T08:00:26.237Z,4.97
2019-01-13T08:02:55.586Z,5.43
2019-01-13T08:05:24.954Z,6.20
2019-01-13T08:07:54.249Z,6.43
2019-01-13T08:10:23.523Z,5.43
2019-01-13T08:12:53.037Z,6.53
2019-01-13T08:15:22.438Z,6.13
2019-01-13T08:17:51.793Z,6.77
2019-01-13T08:20:30.283Z,6.20
2019-01-13T08:22:59.776Z,6.03
2019-01-13T08:25:29.293Z,5.43
2019-01-13T08:27:58.766Z,6.00
2019-01-13T08:30:28.339Z,5.80
2019-01-13T08:32:57.775Z,5.50
2019-01-13T08:35:27.376Z,5.37
2019-01-13T08:37:56.707Z,5.87
2019-01-13T08:40:26.076Z,4.87
2019-01-13T08:42:55.443Z,5.70
2019-01-13T08:45:24.779Z,5.20
2019-01-13T08:47:54.091Z,5.07
2019-01-13T08:50:24.503Z,5.20
2019-01-13T08:52:53.907Z,4.87
2019-01-13T08:55:25.158Z,6.27
2019-01-13T08:57:54.444Z,4.70
2019-01-13T09:00:37.306Z,4.87
2019-01-13T09:03:07.664Z,4.93
2019-01-13T09:05:36.986Z,4.57
2019-01-13T09:08:06.945Z,5.47
2019-01-13T09:10:36.298Z,4.87
2019-01-13T09:13:05.843Z,5.40
2019-01-13T09:15:35.183Z,5.40
2019-01-13T09:18:04.850Z,5.27
2019-01-13T09:20:34.115Z,5.60
2019-01-13T09:23:04.604Z,5.60
2019-01-13T09:25:35.655Z,5.67
2019-01-13T09:28:07.272Z,5.50
2019-01-13T09:30:36.705Z,6.47
2019-01-13T09:33:06.535Z,9.93
2019-01-13T09:35:37.000Z,7.20
2019-01-13T09:38:06.778Z,5.57
2019-01-13T09:40:36.445Z,6.57
2019-01-13T09:43:06.397Z,5.30
2019-01-13T09:45:35.729Z,6.20
2019-01-13T09:48:05.304Z,5.10
2019-01-13T09:50:34.649Z,5.67
2019-01-13T09:53:04.477Z,6.67
2019-01-13T09:55:34.054Z,6.10
2019-01-13T09:58:06.147Z,5.43
2019-01-13T10:00:38.854Z,5.20
2019-01-13T10:03:10.066Z,5.80
2019-01-13T10:05:40.113Z,6.00
2019-01-13T10:08:09.781Z,4.57
2019-01-13T10:10:39.160Z,4.40
2019-01-13T10:13:08.616Z,4.77
2019-01-13T10:15:37.957Z,5.00
2019-01-13T10:18:07.914Z,5.03
2019-01-13T10:20:38.178Z,4.60
2019-01-13T10:23:07.666Z,4.27
2019-01-13T10:25:37.103Z,4.20
2019-01-13T10:28:06.796Z,4.37
2019-01-13T10:30:36.109Z,5.37
2019-01-13T10:33:05.492Z,5.07
2019-01-13T10:35:34.913Z,4.23
2019-01-13T10:38:04.403Z,3.60
2019-01-13T10:40:33.709Z,3.70
2019-01-13T10:43:03.068Z,3.53
2019-01-13T10:45:32.532Z,3.13
2019-01-13T10:48:01.794Z,4.50
2019-01-13T10:50:32.990Z,5.47
2019-01-13T10:53:05.046Z,3.10
2019-01-13T10:55:34.498Z,2.93
2019-01-13T10:58:04.515Z,2.90
2019-01-13T11:00:35.552Z,2.73
2019-01-13T11:03:04.938Z,3.70
2019-01-13T11:05:34.470Z,3.27
2019-01-13T11:08:11.053Z,3.93
2019-01-13T11:10:35.326Z,3.47
2019-01-13T11:13:04.715Z,3.10
2019-01-13T11:15:34.007Z,2.90
2019-01-13T11:18:03.514Z,2.90
2019-01-13T11:20:40.198Z,2.70
2019-01-13T11:23:09.704Z,2.43
2019-01-13T11:25:39.052Z,2.20
2019-01-13T11:28:08.444Z,3.00
2019-01-13T11:30:37.770Z,3.03
2019-01-13T11:33:09.788Z,3.00
2019-01-13T11:35:38.150Z,6.50
2019-01-13T11:38:07.697Z,3.80
2019-01-13T11:40:37.066Z,4.37
2019-01-13T11:43:06.438Z,2.30
2019-01-13T11:45:36.116Z,2.43
2019-01-13T11:48:05.659Z,2.50
2019-01-13T11:50:35.202Z,2.30
2019-01-13T11:53:05.193Z,2.67
2019-01-13T11:55:34.477Z,3.60
2019-01-13T11:58:03.977Z,3.30
2019-01-13T12:00:38.563Z,2.60
2019-01-13T12:03:07.865Z,3.17
2019-01-13T12:05:37.561Z,3.80
2019-01-13T12:08:07.680Z,2.33
2019-01-13T12:10:37.080Z,2.93
2019-01-13T12:13:06.581Z,3.90
2019-01-13T12:15:35.939Z,4.77
2019-01-13T12:18:05.506Z,4.00
2019-01-13T12:20:34.854Z,2.73
2019-01-13T12:23:04.318Z,3.47
2019-01-13T12:25:33.644Z,3.90
2019-01-13T12:28:03.006Z,2.87
2019-01-13T12:30:34.023Z,2.77
2019-01-13T12:33:03.437Z,2.67
2019-01-13T12:35:33.052Z,2.70
2019-01-13T12:38:02.371Z,2.90
2019-01-13T12:40:32.718Z,3.07
2019-01-13T12:43:03.124Z,3.40
2019-01-13T12:45:32.398Z,6.27
2019-01-13T12:48:01.699Z,2.87
2019-01-13T12:50:32.099Z,2.30
2019-01-13T12:53:01.463Z,2.77
2019-01-13T12:55:30.779Z,3.07
2019-01-13T12:58:00.048Z,2.60
2019-01-13T13:00:29.415Z,2.87
2019-01-13T13:02:58.718Z,2.77
2019-01-13T13:05:28.086Z,2.20
2019-01-13T13:07:57.587Z,3.00
2019-01-13T13:10:44.825Z,2.33
2019-01-13T13:13:14.950Z,2.27
2019-01-13T13:15:44.251Z,2.30
2019-01-13T13:18:13.679Z,3.07
2019-01-13T13:20:42.982Z,2.30
2019-01-13T13:25:49.123Z,3.40
2019-01-13T13:28:19.161Z,4.47
2019-01-13T13:30:48.580Z,2.90
2019-01-13T13:33:17.761Z,8.33
2019-01-13T13:35:47.078Z,16.83
2019-01-13T13:38:16.358Z,14.83
2019-01-13T13:40:45.707Z,8.00
2019-01-13T13:43:14.960Z,7.60
2019-01-13T13:45:44.257Z,5.27
2019-01-13T13:48:13.607Z,3.92
2019-01-13T13:50:42.873Z,4.67
2019-01-13T13:53:12.174Z,4.60
2019-01-13T13:55:41.527Z,4.40
2019-01-13T13:58:11.390Z,7.03
2019-01-13T14:00:40.627Z,8.57
2019-01-13T14:03:09.942Z,9.10
2019-01-13T14:05:39.255Z,4.20
2019-01-13T14:08:08.734Z,4.43
2019-01-13T14:10:42.713Z,3.43
2019-01-13T14:13:13.498Z,2.47
2019-01-13T14:15:42.792Z,4.03
2019-01-13T14:18:12.058Z,2.30
2019-01-13T14:20:41.319Z,3.40
2019-01-13T14:23:10.669Z,3.53
2019-01-13T14:25:40.001Z,3.80
2019-01-13T14:28:09.367Z,3.77
2019-01-13T14:30:38.576Z,4.30
2019-01-13T14:33:07.882Z,3.83
2019-01-13T14:35:37.163Z,2.83
2019-01-13T14:38:06.684Z,2.97
2019-01-13T14:40:36.027Z,3.47
2019-01-13T14:43:05.938Z,3.50
2019-01-13T14:45:35.177Z,5.00
2019-01-13T14:48:04.807Z,3.37
2019-01-13T14:50:34.776Z,2.13
2019-01-13T14:53:05.903Z,3.07
2019-01-13T14:55:35.238Z,2.30
2019-01-13T14:58:05.381Z,2.10
2019-01-13T15:00:34.735Z,2.80
2019-01-13T15:03:04.770Z,3.27
2019-01-13T15:05:34.108Z,2.70
2019-01-13T15:08:03.501Z,2.13
2019-01-13T15:10:32.846Z,2.43
2019-01-13T15:13:02.266Z,1.60
2019-01-13T15:15:31.717Z,2.50
2019-01-13T15:18:00.914Z,3.30
2019-01-13T15:20:31.226Z,6.00
2019-01-13T15:23:00.553Z,7.00
2019-01-13T15:25:30.804Z,2.90
2019-01-13T15:28:00.130Z,4.70
2019-01-13T15:30:34.914Z,5.07
2019-01-13T15:33:04.642Z,1.80
2019-01-13T15:35:35.190Z,2.10
2019-01-13T15:38:05.331Z,4.10
2019-01-13T15:40:34.703Z,3.77
2019-01-13T15:43:04.422Z,3.33
2019-01-13T15:45:33.697Z,2.87
2019-01-13T15:48:03.070Z,3.70
2019-01-13T15:50:32.380Z,4.43
2019-01-13T15:53:01.674Z,5.03
2019-01-13T15:55:30.959Z,3.00
2019-01-13T15:58:00.316Z,5.37
2019-01-13T16:00:34.641Z,4.40
2019-01-13T16:03:04.548Z,3.77
2019-01-13T16:05:33.782Z,4.47
2019-01-13T16:08:03.129Z,3.20
2019-01-13T16:10:32.459Z,4.03
2019-01-13T16:13:01.769Z,4.30
2019-01-13T16:15:34.353Z,3.97
2019-01-13T16:18:02.138Z,3.27
2019-01-13T16:20:37.287Z,2.77
2019-01-13T16:23:06.768Z,2.13
2019-01-13T16:25:36.075Z,2.07
2019-01-13T16:28:05.629Z,2.30
2019-01-13T16:30:35.449Z,3.20
2019-01-13T16:33:04.902Z,4.83
2019-01-13T16:35:34.282Z,5.63
2019-01-13T16:38:04.091Z,3.53
2019-01-13T16:40:33.397Z,2.73
2019-01-13T16:43:02.773Z,2.10
2019-01-13T16:45:32.127Z,2.53
2019-01-13T16:48:01.428Z,3.30
2019-01-13T16:50:30.780Z,3.00
2019-01-13T16:53:00.318Z,2.53
2019-01-13T16:55:29.807Z,1.77
2019-01-13T16:57:59.073Z,1.30
2019-01-13T17:00:30.541Z,1.33
2019-01-13T17:02:59.898Z,1.23
2019-01-13T17:05:31.354Z,1.80
2019-01-13T17:08:00.694Z,1.53
2019-01-13T17:10:30.066Z,1.20
2019-01-13T17:12:59.482Z,4.57
2019-01-13T17:15:36.349Z,2.07
2019-01-13T17:18:06.717Z,2.13
2019-01-13T17:20:36.050Z,19.93
2019-01-13T17:23:05.634Z,4.60
2019-01-13T17:25:34.978Z,4.43
2019-01-13T17:28:04.530Z,4.10
2019-01-13T17:30:37.506Z,3.67
2019-01-13T17:33:07.061Z,5.10
2019-01-13T17:35:36.436Z,5.83
2019-01-13T17:38:06.066Z,3.90
2019-01-13T17:40:35.388Z,4.33
2019-01-13T17:43:05.094Z,3.83
2019-01-13T17:45:34.944Z,3.90
2019-01-13T17:48:05.219Z,4.60
2019-01-13T17:50:34.568Z,5.03
2019-01-13T17:53:05.426Z,3.70
2019-01-13T17:55:35.044Z,2.47
2019-01-13T17:58:04.374Z,3.43
2019-01-13T18:00:41.026Z,3.13
2019-01-13T18:03:11.487Z,2.63
2019-01-13T18:05:40.852Z,2.30
2019-01-13T18:08:10.255Z,2.93
2019-01-13T18:10:39.736Z,3.00
2019-01-13T18:13:09.103Z,3.10
2019-01-13T18:15:38.401Z,2.70
2019-01-13T18:18:07.682Z,3.43
2019-01-13T18:20:37.015Z,3.00
2019-01-13T18:23:06.351Z,3.70
2019-01-13T18:25:35.725Z,3.07
2019-01-13T18:28:04.995Z,3.33
2019-01-13T18:30:34.274Z,4.03
2019-01-13T18:33:03.537Z,3.40
2019-01-13T18:35:32.938Z,3.77
2019-01-13T18:38:02.199Z,4.27
2019-01-13T18:40:31.492Z,3.87
2019-01-13T18:43:00.749Z,3.17
2019-01-13T18:45:30.154Z,3.20
2019-01-13T18:48:00.482Z,3.97
2019-01-13T18:50:29.850Z,4.33
2019-01-13T18:53:02.737Z,4.17
2019-01-13T18:55:34.908Z,3.37
2019-01-13T18:58:04.631Z,3.73
2019-01-13T19:00:34.027Z,3.80
2019-01-13T19:03:03.334Z,3.70
2019-01-13T19:05:32.626Z,3.17
2019-01-13T19:08:01.888Z,3.83
2019-01-13T19:10:50.487Z,4.77
2019-01-13T19:13:26.313Z,4.23
2019-01-13T19:15:55.947Z,4.00
2019-01-13T19:18:25.271Z,4.47
2019-01-13T19:20:54.503Z,4.77
2019-01-13T19:23:26.090Z,4.43
2019-01-13T19:25:55.509Z,4.67
2019-01-13T19:28:24.984Z,3.47
2019-01-13T19:30:54.313Z,5.37
2019-01-13T19:33:23.612Z,5.00
2019-01-13T19:35:53.033Z,4.93
2019-01-13T19:38:22.415Z,4.33
2019-01-13T19:40:51.765Z,3.97
2019-01-13T19:43:21.051Z,5.43
2019-01-13T19:45:50.388Z,5.23
2019-01-13T19:48:19.726Z,4.37
2019-01-13T19:50:49.205Z,4.80
2019-01-13T19:53:18.697Z,4.40
2019-01-13T19:55:48.138Z,4.07
2019-01-13T19:58:17.361Z,3.50
2019-01-13T20:00:46.540Z,3.73
2019-01-13T20:03:15.917Z,2.70
2019-01-13T20:05:45.207Z,3.30
2019-01-13T20:08:14.522Z,2.60
2019-01-13T20:10:43.918Z,2.37
2019-01-13T20:13:13.357Z,2.17
2019-01-13T20:15:42.618Z,2.73
2019-01-13T20:18:12.020Z,2.63
2019-01-13T20:20:41.301Z,3.07
2019-01-13T20:23:10.673Z,3.07
2019-01-13T20:25:40.026Z,3.90
2019-01-13T20:28:09.567Z,4.13
2019-01-13T20:30:38.999Z,4.60
2019-01-13T20:33:08.458Z,4.23
2019-01-13T20:35:37.884Z,4.90
2019-01-13T20:38:07.257Z,4.33
2019-01-13T20:40:36.466Z,5.43
2019-01-13T20:43:05.954Z,5.73
2019-01-13T20:45:40.635Z,3.77
2019-01-13T20:48:10.091Z,4.97
2019-01-13T20:50:39.339Z,5.03
2019-01-13T20:53:08.711Z,4.97
2019-01-13T20:55:37.992Z,4.57
2019-01-13T20:58:07.321Z,5.33
2019-01-13T21:00:36.525Z,3.60
2019-01-13T21:03:05.929Z,4.67
2019-01-13T21:05:38.290Z,4.80
2019-01-13T21:08:07.665Z,4.30
2019-01-13T21:10:36.906Z,4.30
2019-01-13T21:13:06.198Z,5.00
2019-01-13T21:15:36.681Z,3.80
2019-01-13T21:18:06.125Z,4.53
2019-01-13T21:20:35.420Z,4.63
2019-01-13T21:23:04.993Z,4.23
2019-01-13T21:25:34.357Z,4.17
2019-01-13T21:28:04.325Z,3.73
2019-01-13T21:30:34.037Z,4.33
2019-01-13T21:33:03.567Z,4.60
2019-01-13T21:35:34.018Z,4.33
2019-01-13T21:38:03.892Z,4.53
2019-01-13T21:40:33.165Z,4.20
2019-01-13T21:43:02.625Z,3.27
2019-01-13T21:45:31.912Z,3.63
2019-01-13T21:48:02.227Z,3.63
2019-01-13T21:50:31.770Z,3.97
2019-01-13T21:53:00.994Z,3.60
2019-01-13T21:55:30.307Z,3.97
2019-01-13T21:57:59.574Z,3.63
2019-01-13T22:00:29.196Z,3.57
2019-01-13T22:02:58.731Z,2.77
2019-01-13T22:05:28.083Z,3.20
2019-01-13T22:07:57.369Z,2.60
2019-01-13T22:10:28.028Z,3.43
2019-01-13T22:12:57.609Z,3.10
2019-01-13T22:15:26.919Z,3.60
2019-01-13T22:17:56.203Z,3.90
2019-01-13T22:20:25.626Z,3.47
2019-01-13T22:22:55.207Z,3.73
2019-01-13T22:25:24.625Z,4.73
2019-01-13T22:27:53.892Z,4.73
2019-01-13T22:30:24.072Z,3.40
2019-01-13T22:32:53.407Z,3.50
2019-01-13T22:35:22.786Z,4.10
2019-01-13T22:37:55.825Z,4.40
2019-01-13T22:40:23.093Z,4.17
2019-01-13T22:42:52.499Z,4.47
2019-01-13T22:45:23.731Z,4.27
2019-01-13T22:47:53.173Z,6.00
2019-01-13T22:50:22.625Z,5.17
2019-01-13T22:52:51.917Z,5.23
2019-01-13T22:55:21.218Z,5.30
2019-01-13T22:57:50.570Z,4.50
2019-01-13T23:00:54.849Z,5.50
2019-01-13T23:03:24.182Z,4.90
2019-01-13T23:05:55.735Z,4.80
2019-01-13T23:08:24.478Z,3.67
2019-01-13T23:10:53.873Z,3.87
2019-01-13T23:13:23.173Z,4.33
2019-01-13T23:15:52.634Z,4.73
2019-01-13T23:18:21.914Z,4.90
2019-01-13T23:20:51.309Z,4.97
2019-01-13T23:23:20.770Z,4.70
2019-01-13T23:25:50.159Z,5.63
2019-01-13T23:28:19.416Z,4.87
2019-01-13T23:30:48.709Z,4.40
2019-01-13T23:33:18.038Z,4.10
2019-01-13T23:35:47.334Z,4.70
2019-01-13T23:38:16.685Z,5.63
2019-01-13T23:40:46.070Z,5.70
2019-01-13T23:43:15.432Z,4.43
2019-01-13T23:45:44.654Z,5.00
2019-01-13T23:48:14.325Z,4.35
2019-01-13T23:50:43.677Z,4.90
2019-01-13T23:53:14.134Z,5.97
2019-01-13T23:55:43.498Z,4.83
2019-01-13T23:58:12.771Z,4.57
